createdAt,value
2022-12-12T00:01:04.326Z,12.70
2022-12-12T00:06:04.840Z,12.40
2022-12-12T00:11:01.257Z,12.13
2022-12-12T00:15:57.730Z,13.48
2022-12-12T00:20:56.393Z,13.05
2022-12-12T00:25:58.083Z,11.60
2022-12-12T00:30:55.559Z,12.90
2022-12-12T00:35:54.461Z,12.48
2022-12-12T00:40:56.522Z,13.13
2022-12-12T00:45:53.682Z,11.88
2022-12-12T00:50:50.108Z,12.68
2022-12-12T00:55:54.876Z,10.98
2022-12-12T01:00:52.064Z,11.63
2022-12-12T01:05:49.049Z,11.85
2022-12-12T01:10:45.417Z,12.20
2022-12-12T01:15:41.811Z,12.48
2022-12-12T01:20:38.554Z,12.50
2022-12-12T01:25:35.317Z,13.27
2022-12-12T01:30:32.180Z,11.73
2022-12-12T01:35:28.592Z,13.35
2022-12-12T01:40:28.272Z,14.73
2022-12-12T01:45:55.938Z,13.13
2022-12-12T01:50:53.744Z,14.93
2022-12-12T01:55:50.625Z,14.57
2022-12-12T02:00:47.066Z,13.48
2022-12-12T02:05:49.254Z,14.95
2022-12-12T02:10:45.833Z,14.55
2022-12-12T02:16:01.192Z,13.93
2022-12-12T02:21:15.515Z,14.52
2022-12-12T02:26:50.518Z,14.10
2022-12-12T02:32:08.349Z,14.18
2022-12-12T02:37:15.637Z,12.98
2022-12-12T02:42:27.693Z,15.10
2022-12-12T02:47:29.960Z,15.15
2022-12-12T02:52:27.026Z,14.15
2022-12-12T02:57:25.256Z,15.38
2022-12-12T03:02:52.993Z,15.10
2022-12-12T03:07:55.346Z,13.45
2022-12-12T03:13:03.740Z,14.50
2022-12-12T03:18:18.297Z,16.02
2022-12-12T03:23:18.359Z,15.15
2022-12-12T03:28:20.528Z,14.68
2022-12-12T03:33:29.174Z,15.80
2022-12-12T03:38:36.315Z,16.13
2022-12-12T03:43:37.494Z,15.80
2022-12-12T03:48:38.937Z,13.80
2022-12-12T03:53:58.310Z,15.90
2022-12-12T03:58:57.471Z,17.25
2022-12-12T04:04:00.345Z,16.40
2022-12-12T04:09:22.763Z,15.23
2022-12-12T04:14:21.903Z,14.57
2022-12-12T04:20:10.477Z,16.17
2022-12-12T04:25:27.075Z,15.50
2022-12-12T04:30:24.779Z,14.95
2022-12-12T04:35:50.043Z,14.63
2022-12-12T04:40:50.231Z,15.48
2022-12-12T04:45:53.429Z,14.32
2022-12-12T04:50:52.797Z,13.55
2022-12-12T04:55:57.437Z,13.35
2022-12-12T05:01:03.771Z,14.05
2022-12-12T05:06:07.589Z,13.98
2022-12-12T05:11:06.263Z,14.45
2022-12-12T05:16:10.172Z,13.93
2022-12-12T05:21:06.676Z,13.98
2022-12-12T05:26:23.587Z,15.32
2022-12-12T05:31:20.133Z,13.40
2022-12-12T05:36:17.035Z,13.85
2022-12-12T05:41:13.556Z,13.05
2022-12-12T05:46:10.085Z,13.38
2022-12-12T05:51:06.664Z,13.43
2022-12-12T05:56:03.062Z,13.57
2022-12-12T06:01:03.231Z,13.68
2022-12-12T06:06:00.200Z,12.50
2022-12-12T06:10:56.553Z,11.75
2022-12-12T06:15:53.020Z,13.13
2022-12-12T06:20:49.434Z,13.27
2022-12-12T06:25:50.021Z,12.48
2022-12-12T06:30:46.438Z,11.98
2022-12-12T06:35:42.865Z,12.00
2022-12-12T06:40:41.053Z,11.13
2022-12-12T06:45:37.437Z,12.77
2022-12-12T06:50:33.840Z,11.73
2022-12-12T06:55:30.203Z,9.95
2022-12-12T07:00:26.604Z,12.07
2022-12-12T07:05:22.985Z,10.77
2022-12-12T07:10:21.403Z,11.85
2022-12-12T07:15:18.131Z,10.48
2022-12-12T07:20:14.598Z,10.43
2022-12-12T07:25:11.349Z,11.65
2022-12-12T07:30:08.795Z,10.10
2022-12-12T07:35:05.348Z,9.68
2022-12-12T07:40:01.769Z,10.35
2022-12-12T07:44:58.168Z,9.27
2022-12-12T07:49:54.699Z,9.80
2022-12-12T07:54:51.097Z,9.35
2022-12-12T07:59:47.597Z,9.77
2022-12-12T08:04:44.038Z,9.48
2022-12-12T08:09:40.524Z,9.85
2022-12-12T08:14:37.453Z,8.85
2022-12-12T08:19:34.179Z,8.32
2022-12-12T08:24:30.765Z,8.73
2022-12-12T08:29:28.109Z,8.75
2022-12-12T08:34:24.653Z,7.15
2022-12-12T08:39:21.324Z,8.45
2022-12-12T08:44:20.305Z,8.55
2022-12-12T08:54:13.445Z,7.55
2022-12-12T08:59:09.858Z,7.78
2022-12-12T09:04:06.252Z,8.77
2022-12-12T09:09:03.006Z,8.93
2022-12-12T09:13:59.412Z,8.43
2022-12-12T09:18:56.697Z,8.50
2022-12-12T09:23:53.291Z,7.80
2022-12-12T09:28:49.881Z,8.15
2022-12-12T09:33:46.305Z,9.02
2022-12-12T09:38:42.828Z,7.90
2022-12-12T09:43:57.641Z,8.55
2022-12-12T09:49:02.225Z,8.05
2022-12-12T09:53:58.734Z,8.35
2022-12-12T09:59:03.734Z,7.82
2022-12-12T10:04:24.715Z,8.70
2022-12-12T10:09:58.393Z,7.43
2022-12-12T10:15:00.211Z,8.05
2022-12-12T10:20:04.686Z,8.82
2022-12-12T10:25:17.503Z,7.63
2022-12-12T10:30:17.586Z,8.52
2022-12-12T10:35:26.331Z,8.45
2022-12-12T10:40:32.405Z,8.48
2022-12-12T10:45:44.824Z,8.23
2022-12-12T10:50:54.711Z,9.82
2022-12-12T10:55:55.051Z,7.93
2022-12-12T11:00:59.864Z,9.13
2022-12-12T11:05:57.109Z,8.80
2022-12-12T11:11:17.902Z,8.98
2022-12-12T11:16:19.473Z,8.32
2022-12-12T11:21:16.290Z,8.52
2022-12-12T11:26:16.932Z,8.10
2022-12-12T11:31:18.969Z,8.48
2022-12-12T11:36:17.854Z,8.30
2022-12-12T11:41:14.488Z,9.57
2022-12-12T11:46:13.682Z,7.40
2022-12-12T11:51:10.775Z,8.02
2022-12-12T11:56:15.753Z,8.02
2022-12-12T12:01:36.617Z,8.00
2022-12-12T12:06:42.178Z,7.25
2022-12-12T12:11:47.613Z,7.32
2022-12-12T12:17:13.919Z,7.82
2022-12-12T12:22:27.636Z,9.85
2022-12-12T12:27:38.705Z,7.03
2022-12-12T12:32:53.774Z,7.38
2022-12-12T12:37:59.710Z,8.75
2022-12-12T12:43:17.234Z,8.77
2022-12-12T12:48:32.757Z,6.68
2022-12-12T12:53:37.496Z,8.57
2022-12-12T12:58:40.284Z,8.52
2022-12-12T13:03:45.943Z,9.38
2022-12-12T13:08:57.182Z,8.55
2022-12-12T13:13:57.143Z,7.63
2022-12-12T13:19:13.719Z,9.00
2022-12-12T13:24:23.395Z,8.23
2022-12-12T13:29:43.572Z,8.98
2022-12-12T13:34:49.030Z,8.45
2022-12-12T13:39:46.212Z,9.10
2022-12-12T13:44:48.015Z,9.55
2022-12-12T13:49:45.713Z,9.38
2022-12-12T13:54:47.700Z,9.82
2022-12-12T13:59:53.216Z,9.52
2022-12-12T14:05:27.793Z,10.55
2022-12-12T14:10:28.316Z,9.57
2022-12-12T14:15:31.723Z,9.45
2022-12-12T14:20:43.175Z,9.13
2022-12-12T14:25:40.888Z,10.55
2022-12-12T14:30:44.703Z,10.25
2022-12-12T14:35:51.164Z,9.55
2022-12-12T14:40:49.626Z,9.52
2022-12-12T14:45:53.673Z,7.95
2022-12-12T14:51:01.348Z,10.48
2022-12-12T14:56:01.001Z,10.27
2022-12-12T15:01:00.128Z,9.48
2022-12-12T15:06:19.341Z,11.00
2022-12-12T15:11:20.314Z,9.85
2022-12-12T15:16:18.631Z,10.88
2022-12-12T15:21:19.052Z,9.80
2022-12-12T15:26:18.813Z,9.13
2022-12-12T15:31:19.045Z,10.43
2022-12-12T15:36:19.045Z,10.82
2022-12-12T15:41:21.271Z,9.30
2022-12-12T15:46:17.852Z,9.23
2022-12-12T15:51:24.379Z,9.98
2022-12-12T15:56:21.445Z,10.35
2022-12-12T16:01:24.030Z,10.57
2022-12-12T16:06:23.753Z,11.85
2022-12-12T16:11:41.800Z,12.52
2022-12-12T16:16:45.357Z,11.73
2022-12-12T16:21:42.638Z,12.25
2022-12-12T16:26:38.947Z,11.45
2022-12-12T16:31:35.411Z,13.85
2022-12-12T16:36:35.660Z,11.77
2022-12-12T16:41:36.648Z,11.65
2022-12-12T16:46:32.973Z,12.65
2022-12-12T16:51:30.744Z,11.63
2022-12-12T16:56:27.180Z,13.70
2022-12-12T17:01:23.600Z,12.73
2022-12-12T17:06:19.973Z,11.60
2022-12-12T17:11:16.572Z,12.80
2022-12-12T17:16:12.995Z,13.35
2022-12-12T17:21:09.662Z,13.63
2022-12-12T17:26:06.101Z,15.25
2022-12-12T17:31:06.676Z,17.10
2022-12-12T17:36:06.145Z,14.75
2022-12-12T17:41:04.953Z,15.45
2022-12-12T17:51:02.227Z,13.38
2022-12-12T17:56:01.582Z,13.98
2022-12-12T18:01:12.489Z,13.32
2022-12-12T18:06:09.631Z,13.20
2022-12-12T18:11:14.154Z,13.63
2022-12-12T18:16:13.229Z,14.52
2022-12-12T18:21:23.578Z,16.63
2022-12-12T18:26:30.039Z,15.95
2022-12-12T18:31:27.617Z,14.38
2022-12-12T18:36:27.326Z,15.20
2022-12-12T18:41:24.231Z,13.43
2022-12-12T18:46:22.467Z,14.85
2022-12-12T18:51:23.107Z,13.63
2022-12-12T18:56:27.914Z,15.68
2022-12-12T19:01:28.546Z,14.98
2022-12-12T19:06:31.559Z,15.85
2022-12-12T19:11:28.020Z,15.75
2022-12-12T19:16:24.521Z,13.95
2022-12-12T19:21:23.993Z,14.27
2022-12-12T19:26:27.724Z,15.00
2022-12-12T19:31:24.642Z,15.02
2022-12-12T19:36:24.064Z,15.15
2022-12-12T19:41:22.036Z,16.45
2022-12-12T19:46:21.004Z,14.95
2022-12-12T19:51:20.078Z,17.13
2022-12-12T19:56:22.632Z,17.30
2022-12-12T20:01:21.771Z,19.60
2022-12-12T20:06:18.751Z,19.13
2022-12-12T20:11:18.580Z,16.42
2022-12-12T20:16:16.931Z,16.85
2022-12-12T20:21:29.858Z,14.63
2022-12-12T20:26:31.219Z,13.32
2022-12-12T20:31:31.003Z,15.30
2022-12-12T20:36:30.179Z,14.80
2022-12-12T20:41:29.185Z,13.07
2022-12-12T20:51:54.757Z,16.05
2022-12-12T20:56:52.416Z,15.98
2022-12-12T21:01:48.886Z,14.38
2022-12-12T21:06:49.709Z,13.23
2022-12-12T21:11:46.486Z,13.88
2022-12-12T21:16:42.868Z,14.05
2022-12-12T21:21:41.071Z,14.13
2022-12-12T21:26:37.466Z,12.87
2022-12-12T21:31:36.889Z,12.25
2022-12-12T21:36:34.316Z,15.43
2022-12-12T21:41:30.691Z,13.27
2022-12-12T21:46:29.290Z,13.65
2022-12-12T21:51:25.743Z,12.70
2022-12-12T21:56:22.199Z,14.48
2022-12-12T22:01:20.797Z,14.43
2022-12-12T22:06:18.370Z,13.55
2022-12-12T22:11:34.024Z,11.85
2022-12-12T22:16:34.364Z,13.05
2022-12-12T22:21:30.938Z,14.32
2022-12-12T22:26:33.034Z,13.05
2022-12-12T22:31:32.844Z,12.98
2022-12-12T22:36:33.099Z,12.27
2022-12-12T22:41:29.995Z,13.73
2022-12-12T22:46:27.346Z,13.52
2022-12-12T22:51:28.140Z,13.32
2022-12-12T22:56:25.161Z,12.55
2022-12-12T23:01:23.095Z,13.65
2022-12-12T23:06:22.212Z,10.25
2022-12-12T23:11:20.826Z,15.25
2022-12-12T23:16:19.749Z,14.43
2022-12-12T23:21:21.543Z,14.70
2022-12-12T23:26:30.183Z,13.93
2022-12-12T23:31:29.554Z,16.38
2022-12-12T23:36:26.770Z,15.18
2022-12-12T23:41:23.507Z,14.13
2022-12-12T23:46:29.677Z,14.38
2022-12-12T23:51:28.730Z,14.32
2022-12-12T23:56:25.760Z,15.52
